createdAt,value
2022-11-04T00:01:59.599Z,0.23
2022-11-04T00:04:27.073Z,0.26
2022-11-04T00:06:53.953Z,0.22
2022-11-04T00:09:23.136Z,0.16
2022-11-04T00:12:08.298Z,0.21
2022-11-04T00:14:35.412Z,0.20
2022-11-04T00:17:20.855Z,0.18
2022-11-04T00:20:12.697Z,0.22
2022-11-04T00:22:59.293Z,0.20
2022-11-04T00:25:44.971Z,0.22
2022-11-04T00:28:30.895Z,0.21
2022-11-04T00:30:58.455Z,0.17
2022-11-04T00:33:28.136Z,0.14
2022-11-04T00:35:56.543Z,0.17
2022-11-04T00:38:24.695Z,0.18
2022-11-04T00:40:51.539Z,0.14
2022-11-04T00:43:18.313Z,0.15
2022-11-04T00:45:45.214Z,0.12
2022-11-04T00:48:12.018Z,0.15
2022-11-04T00:50:39.333Z,0.14
2022-11-04T00:53:06.367Z,0.19
2022-11-04T00:55:33.469Z,0.20
2022-11-04T00:58:00.256Z,0.25
2022-11-04T01:00:27.115Z,0.32
2022-11-04T01:02:54.037Z,0.36
2022-11-04T01:05:20.873Z,0.35
2022-11-04T01:07:47.643Z,0.47
2022-11-04T01:10:14.494Z,0.51
2022-11-04T01:12:41.256Z,0.60
2022-11-04T01:15:08.458Z,0.67
2022-11-04T01:17:35.152Z,0.71
2022-11-04T01:20:01.920Z,0.77
2022-11-04T01:22:28.652Z,0.86
2022-11-04T01:24:55.373Z,0.91
2022-11-04T01:27:22.113Z,0.96
2022-11-04T01:29:48.853Z,1.03
2022-11-04T01:32:15.576Z,1.08
2022-11-04T01:34:43.644Z,1.12
2022-11-04T01:37:10.712Z,1.18
2022-11-04T01:39:37.432Z,1.24
2022-11-04T01:44:54.058Z,1.33
2022-11-04T01:47:24.132Z,1.37
2022-11-04T01:49:56.472Z,1.40
2022-11-04T01:52:30.834Z,1.43
2022-11-04T01:54:59.417Z,1.50
2022-11-04T01:57:34.572Z,1.50
2022-11-04T02:00:02.375Z,1.54
2022-11-04T02:02:29.223Z,1.48
2022-11-04T02:04:56.213Z,1.57
2022-11-04T02:07:22.975Z,1.59
2022-11-04T02:09:49.715Z,1.58
2022-11-04T02:12:34.877Z,1.56
2022-11-04T02:15:01.681Z,1.60
2022-11-04T02:17:42.562Z,1.61
2022-11-04T02:20:31.003Z,1.65
2022-11-04T02:23:12.075Z,1.70
2022-11-04T02:25:44.536Z,1.74
2022-11-04T02:28:35.413Z,1.78
2022-11-04T02:31:29.594Z,1.86
2022-11-04T02:34:29.974Z,1.92
2022-11-04T02:37:04.413Z,2.00
2022-11-04T02:39:54.413Z,2.04
2022-11-04T02:42:49.413Z,2.15
2022-11-04T02:45:54.791Z,2.25
2022-11-04T02:49:06.573Z,2.37
2022-11-04T02:51:45.291Z,2.48
2022-11-04T02:54:17.660Z,2.61
2022-11-04T02:56:47.056Z,2.74
2022-11-04T02:59:17.695Z,2.86
2022-11-04T03:01:44.498Z,2.97
2022-11-04T03:04:20.515Z,3.05
2022-11-04T03:06:47.974Z,3.16
2022-11-04T03:09:14.873Z,3.21
2022-11-04T03:11:43.897Z,3.26
2022-11-04T03:14:16.275Z,3.38
2022-11-04T03:16:48.852Z,3.44
2022-11-04T03:19:20.372Z,3.48
2022-11-04T03:21:54.516Z,3.53
2022-11-04T03:24:21.395Z,3.58
2022-11-04T03:27:18.553Z,3.69
2022-11-04T03:30:08.301Z,3.73
2022-11-04T03:32:44.193Z,3.76
2022-11-04T03:35:11.277Z,3.79
2022-11-04T03:37:38.074Z,3.80
2022-11-04T03:40:05.412Z,3.79
2022-11-04T03:42:32.693Z,3.78
2022-11-04T03:44:59.412Z,3.79
2022-11-04T03:47:27.652Z,3.82
2022-11-04T03:50:20.653Z,3.86
2022-11-04T03:52:47.433Z,3.87
2022-11-04T03:55:14.293Z,3.86
2022-11-04T03:57:59.593Z,3.94
2022-11-04T04:00:26.413Z,3.98
2022-11-04T04:03:22.214Z,3.99
2022-11-04T04:05:53.135Z,4.02
2022-11-04T04:08:46.734Z,4.02
2022-11-04T04:11:20.052Z,4.03
2022-11-04T04:14:06.694Z,4.03
2022-11-04T04:16:43.776Z,4.02
2022-11-04T04:19:15.532Z,4.07
2022-11-04T04:21:58.435Z,4.10
2022-11-04T04:24:45.691Z,4.13
2022-11-04T04:27:30.735Z,4.16
2022-11-04T04:30:02.463Z,4.22
2022-11-04T04:32:30.196Z,4.22
2022-11-04T04:35:16.896Z,4.33
2022-11-04T04:37:44.353Z,4.40
2022-11-04T04:40:31.535Z,4.44
2022-11-04T04:43:16.773Z,4.47
2022-11-04T04:45:44.497Z,4.54
2022-11-04T04:48:12.735Z,4.59
2022-11-04T04:50:48.536Z,4.61
2022-11-04T04:53:15.474Z,4.68
2022-11-04T04:55:42.217Z,4.71
2022-11-04T04:58:09.415Z,4.75
2022-11-04T05:00:36.256Z,4.78
2022-11-04T05:03:03.056Z,4.81
2022-11-04T05:05:29.832Z,4.78
2022-11-04T05:07:56.594Z,4.88
2022-11-04T05:10:23.376Z,4.89
2022-11-04T05:13:08.511Z,4.94
2022-11-04T05:15:35.292Z,4.98
2022-11-04T05:18:02.452Z,5.00
2022-11-04T05:20:30.433Z,5.02
2022-11-04T05:22:57.313Z,5.00
2022-11-04T05:25:24.159Z,5.09
2022-11-04T05:27:50.956Z,5.11
2022-11-04T05:30:17.917Z,5.12
2022-11-04T05:32:44.691Z,5.13
2022-11-04T05:35:11.475Z,5.13
2022-11-04T05:37:38.340Z,5.16
2022-11-04T05:40:05.734Z,5.18
2022-11-04T05:42:32.578Z,5.17
2022-11-04T05:44:59.312Z,5.18
2022-11-04T05:47:26.055Z,5.20
2022-11-04T05:49:52.830Z,5.25
2022-11-04T05:52:19.562Z,5.23
2022-11-04T05:54:46.319Z,5.26
2022-11-04T05:57:13.072Z,5.26
2022-11-04T05:59:39.831Z,5.25
2022-11-04T06:02:07.618Z,5.25
2022-11-04T06:04:34.653Z,5.23
2022-11-04T06:07:01.413Z,5.21
2022-11-04T06:09:46.132Z,5.18
2022-11-04T06:12:17.165Z,5.25
2022-11-04T06:14:44.073Z,5.25
2022-11-04T06:17:18.177Z,5.27
2022-11-04T06:19:45.016Z,5.35
2022-11-04T06:22:12.219Z,5.38
2022-11-04T06:24:39.059Z,5.33
2022-11-04T06:27:05.794Z,5.46
2022-11-04T06:29:32.676Z,5.52
2022-11-04T06:31:59.491Z,5.57
2022-11-04T06:34:26.631Z,5.59
2022-11-04T06:36:53.414Z,5.65
2022-11-04T06:39:20.332Z,5.70
2022-11-04T06:41:50.503Z,5.67
2022-11-04T06:44:18.513Z,5.77
2022-11-04T06:46:45.455Z,5.82
2022-11-04T06:49:14.291Z,5.88
2022-11-04T06:51:41.094Z,5.94
2022-11-04T06:54:07.935Z,5.97
2022-11-04T06:56:34.692Z,6.02
2022-11-04T06:59:01.534Z,6.02
2022-11-04T07:01:31.637Z,5.98
2022-11-04T07:03:59.301Z,6.17
2022-11-04T07:06:26.380Z,6.22
2022-11-04T07:08:53.238Z,6.28
2022-11-04T07:11:21.305Z,6.42
2022-11-04T07:13:49.076Z,6.53
2022-11-04T07:16:15.953Z,6.64
2022-11-04T07:18:42.832Z,6.73
2022-11-04T07:21:10.501Z,6.78
2022-11-04T07:23:37.421Z,6.77
2022-11-04T07:26:06.154Z,6.94
2022-11-04T07:28:33.675Z,7.03
2022-11-04T07:31:01.338Z,7.13
2022-11-04T07:33:28.291Z,7.27
2022-11-04T07:35:58.079Z,7.38
2022-11-04T07:38:25.300Z,7.50
2022-11-04T07:40:52.120Z,7.65
2022-11-04T07:43:18.921Z,7.79
2022-11-04T07:45:45.658Z,7.94
2022-11-04T07:48:12.599Z,8.06
2022-11-04T07:50:40.559Z,8.21
2022-11-04T07:53:08.060Z,8.36
2022-11-04T07:55:42.924Z,8.55
2022-11-04T07:58:10.377Z,8.76
2022-11-04T08:00:37.220Z,8.95
2022-11-04T08:03:03.999Z,9.20
2022-11-04T08:05:30.793Z,9.40
2022-11-04T08:07:58.018Z,9.61
2022-11-04T08:10:24.929Z,9.86
2022-11-04T08:12:52.497Z,10.26
2022-11-04T08:15:19.314Z,10.75
2022-11-04T08:17:46.054Z,11.41
2022-11-04T08:20:12.915Z,12.09
2022-11-04T08:22:39.694Z,12.74
2022-11-04T08:25:06.773Z,13.40
2022-11-04T08:27:34.614Z,14.16
2022-11-04T08:30:01.396Z,14.78
2022-11-04T08:32:28.203Z,15.41
2022-11-04T08:34:54.956Z,15.69
2022-11-04T08:37:21.693Z,16.13
2022-11-04T08:39:48.856Z,16.44
2022-11-04T08:42:15.596Z,16.55
2022-11-04T08:44:42.977Z,16.71
2022-11-04T08:47:10.341Z,17.16
2022-11-04T08:49:41.157Z,17.27
2022-11-04T08:52:07.902Z,17.65
2022-11-04T08:54:34.718Z,18.19
2022-11-04T08:57:01.478Z,18.70
2022-11-04T08:59:28.435Z,19.18
2022-11-04T09:01:55.386Z,19.44
2022-11-04T09:04:22.312Z,19.79
2022-11-04T09:06:51.121Z,20.05
2022-11-04T09:09:18.245Z,20.25
2022-11-04T09:11:45.346Z,20.37
2022-11-04T09:14:12.499Z,20.09
2022-11-04T09:16:39.553Z,19.47
2022-11-04T09:19:06.575Z,19.07
2022-11-04T09:21:33.313Z,18.66
2022-11-04T09:24:00.057Z,18.95
2022-11-04T09:26:27.014Z,18.84
2022-11-04T09:28:55.484Z,18.27
2022-11-04T09:31:22.273Z,18.02
2022-11-04T09:33:49.623Z,17.68
2022-11-04T09:36:16.378Z,17.53
2022-11-04T09:38:43.292Z,17.41
2022-11-04T09:41:30.256Z,17.39
2022-11-04T09:44:21.081Z,17.41
2022-11-04T09:46:49.517Z,17.39
2022-11-04T09:49:16.894Z,17.88
2022-11-04T09:51:54.892Z,17.71
2022-11-04T09:54:50.475Z,18.82
2022-11-04T09:57:18.167Z,18.86
2022-11-04T09:59:45.000Z,19.13
2022-11-04T10:02:20.670Z,19.09
2022-11-04T10:04:57.996Z,19.60
2022-11-04T10:07:47.775Z,20.36
2022-11-04T10:10:28.574Z,21.04
2022-11-04T10:13:02.166Z,21.13
2022-11-04T10:15:41.850Z,20.58
2022-11-04T10:18:43.135Z,19.53
2022-11-04T10:21:16.093Z,20.01
2022-11-04T10:23:50.031Z,20.52
2022-11-04T10:26:31.890Z,21.15
2022-11-04T10:29:03.175Z,21.81
2022-11-04T10:31:30.210Z,22.22
2022-11-04T10:34:01.227Z,22.52
2022-11-04T10:36:28.118Z,22.65
2022-11-04T10:38:55.853Z,22.61
2022-11-04T10:41:30.448Z,22.46
2022-11-04T10:44:02.073Z,22.23
2022-11-04T10:46:50.155Z,21.90
2022-11-04T10:49:38.613Z,21.24
2022-11-04T10:52:06.462Z,20.40
2022-11-04T10:54:40.287Z,19.45
2022-11-04T10:57:07.350Z,18.60
2022-11-04T10:59:56.208Z,17.92
2022-11-04T11:02:41.690Z,17.33
2022-11-04T11:05:17.758Z,17.10
2022-11-04T11:07:45.554Z,17.28
2022-11-04T11:10:28.133Z,17.67
2022-11-04T11:12:59.435Z,18.05
2022-11-04T11:15:37.229Z,18.70
2022-11-04T11:18:07.011Z,19.39
2022-11-04T11:20:37.667Z,19.87
2022-11-04T11:23:10.548Z,20.33
2022-11-04T11:25:45.709Z,20.70
2022-11-04T11:28:23.230Z,21.18
2022-11-04T11:30:59.654Z,21.53
2022-11-04T11:33:31.038Z,21.50
2022-11-04T11:36:18.134Z,21.54
2022-11-04T11:39:03.639Z,21.76
2022-11-04T11:41:31.886Z,21.15
2022-11-04T11:44:07.762Z,20.40
2022-11-04T11:46:35.870Z,19.75
2022-11-04T11:49:04.089Z,19.31
2022-11-04T11:51:33.713Z,18.98
2022-11-04T11:54:15.695Z,18.76
2022-11-04T11:57:11.811Z,18.47
2022-11-04T12:02:36.901Z,18.00
2022-11-04T12:11:39.912Z,17.55
2022-11-04T12:14:16.511Z,17.53
2022-11-04T12:16:57.385Z,17.47
2022-11-04T12:19:57.936Z,17.42
2022-11-04T12:23:02.230Z,17.29
2022-11-04T12:25:38.535Z,17.15
2022-11-04T12:28:28.875Z,17.00
2022-11-04T12:31:06.614Z,16.83
2022-11-04T12:33:40.869Z,16.63
2022-11-04T12:36:19.867Z,16.45
2022-11-04T12:39:05.318Z,16.26
2022-11-04T12:45:09.469Z,15.93
2022-11-04T12:47:41.516Z,15.88
2022-11-04T12:50:08.448Z,15.83
2022-11-04T12:52:44.630Z,15.68
2022-11-04T12:55:43.983Z,15.52
2022-11-04T12:58:41.770Z,15.42
2022-11-04T13:01:33.221Z,15.35
2022-11-04T13:04:00.212Z,15.26
2022-11-04T13:06:45.649Z,15.21
2022-11-04T13:09:19.609Z,15.13
2022-11-04T13:11:58.511Z,15.03
2022-11-04T13:14:29.872Z,14.97
2022-11-04T13:17:00.375Z,14.93
2022-11-04T13:19:34.585Z,14.90
2022-11-04T13:22:03.912Z,14.85
2022-11-04T13:24:32.079Z,14.79
2022-11-04T13:27:02.078Z,14.79
2022-11-04T13:29:28.996Z,14.72
2022-11-04T13:32:20.033Z,14.69
2022-11-04T13:34:57.196Z,14.56
2022-11-04T13:37:38.856Z,14.45
2022-11-04T13:40:19.937Z,14.30
2022-11-04T13:43:33.337Z,14.16
2022-11-04T13:46:00.175Z,13.96
2022-11-04T13:48:28.233Z,13.81
2022-11-04T13:51:16.400Z,13.67
2022-11-04T13:53:48.193Z,13.42
2022-11-04T13:56:35.506Z,13.31
2022-11-04T13:59:20.970Z,13.15
2022-11-04T14:01:47.903Z,12.97
2022-11-04T14:04:15.469Z,12.75
2022-11-04T14:06:50.733Z,12.50
2022-11-04T14:09:32.460Z,12.24
2022-11-04T14:12:11.505Z,11.94
2022-11-04T14:14:39.165Z,11.65
2022-11-04T14:17:28.357Z,11.38
2022-11-04T14:20:22.373Z,11.08
2022-11-04T14:22:56.710Z,10.75
2022-11-04T14:25:29.571Z,10.63
2022-11-04T14:27:57.637Z,10.40
2022-11-04T14:30:46.255Z,10.26
2022-11-04T14:33:39.493Z,10.09
2022-11-04T14:36:25.165Z,9.93
2022-11-04T14:39:12.078Z,9.77
2022-11-04T14:41:42.214Z,9.64
2022-11-04T14:44:12.624Z,9.47
2022-11-04T14:46:45.833Z,9.32
2022-11-04T14:49:43.233Z,9.20
2022-11-04T14:52:42.142Z,8.97
2022-11-04T14:55:11.981Z,8.91
2022-11-04T14:57:39.717Z,8.77
2022-11-04T15:00:37.716Z,8.65
2022-11-04T15:03:19.269Z,8.54
2022-11-04T15:06:00.701Z,8.36
2022-11-04T15:08:42.216Z,8.31
2022-11-04T15:11:17.131Z,8.21
2022-11-04T15:13:48.395Z,8.12
2022-11-04T15:16:25.853Z,7.98
2022-11-04T15:18:53.391Z,7.91
2022-11-04T15:21:20.293Z,7.86
2022-11-04T15:23:51.319Z,7.81
2022-11-04T15:26:31.852Z,7.67
2022-11-04T15:29:00.319Z,7.64
2022-11-04T15:31:31.501Z,7.63
2022-11-04T15:33:59.511Z,7.58
2022-11-04T15:36:36.345Z,7.47
2022-11-04T15:39:08.573Z,7.43
2022-11-04T15:42:02.074Z,7.40
2022-11-04T15:44:30.893Z,7.38
2022-11-04T15:47:22.196Z,7.39
2022-11-04T15:49:50.433Z,7.35
2022-11-04T15:52:22.095Z,7.39
2022-11-04T15:54:50.833Z,7.36
2022-11-04T15:57:22.833Z,7.37
2022-11-04T16:00:00.003Z,7.41
2022-11-04T16:02:37.879Z,7.41
2022-11-04T16:05:10.813Z,7.44
2022-11-04T16:07:38.949Z,7.49
2022-11-04T16:10:31.593Z,7.52
2022-11-04T16:13:00.494Z,7.52
2022-11-04T16:15:46.954Z,7.64
2022-11-04T16:18:36.193Z,7.71
2022-11-04T16:21:14.777Z,7.72
2022-11-04T16:23:47.616Z,7.78
2022-11-04T16:26:14.400Z,7.80
2022-11-04T16:28:41.770Z,7.77
2022-11-04T16:31:33.056Z,7.85
2022-11-04T16:33:59.913Z,7.88
2022-11-04T16:36:34.070Z,7.91
2022-11-04T16:39:03.935Z,7.92
2022-11-04T16:41:33.352Z,7.94
2022-11-04T16:44:00.275Z,7.93
2022-11-04T16:46:27.079Z,7.95
2022-11-04T16:48:54.295Z,7.95
2022-11-04T16:51:22.215Z,7.96
2022-11-04T16:53:53.192Z,7.90
2022-11-04T16:56:22.874Z,7.98
2022-11-04T16:58:49.633Z,8.00
2022-11-04T17:01:16.669Z,8.01
2022-11-04T17:03:43.598Z,7.99
2022-11-04T17:06:11.596Z,8.02
2022-11-04T17:08:38.383Z,8.02
2022-11-04T17:11:05.654Z,7.98
2022-11-04T17:13:36.307Z,7.94
2022-11-04T17:16:03.833Z,7.98
2022-11-04T17:18:31.435Z,7.98
2022-11-04T17:20:58.251Z,7.96
2022-11-04T17:23:25.037Z,7.91
2022-11-04T17:25:51.833Z,7.89
2022-11-04T17:28:18.593Z,7.81
2022-11-04T17:30:45.534Z,7.82
2022-11-04T17:33:16.217Z,7.75
2022-11-04T17:35:44.157Z,7.73
2022-11-04T17:38:11.878Z,7.68
2022-11-04T17:40:59.219Z,7.67
2022-11-04T17:43:44.875Z,7.61
2022-11-04T17:46:30.374Z,7.56
2022-11-04T17:48:57.338Z,7.50
2022-11-04T17:51:24.175Z,7.41
2022-11-04T17:53:50.953Z,7.42
2022-11-04T17:56:18.918Z,7.39
2022-11-04T17:58:47.193Z,7.36
2022-11-04T18:01:14.975Z,7.34
2022-11-04T18:03:42.854Z,7.29
2022-11-04T18:06:10.132Z,7.37
2022-11-04T18:08:36.971Z,7.39
2022-11-04T18:11:05.547Z,7.41
2022-11-04T18:13:32.392Z,7.46
2022-11-04T18:16:01.656Z,7.47
2022-11-04T18:18:28.537Z,7.49
2022-11-04T18:21:03.152Z,7.51
2022-11-04T18:23:30.097Z,7.53
2022-11-04T18:25:57.077Z,7.56
2022-11-04T18:28:23.858Z,7.57
2022-11-04T18:30:50.618Z,7.58
2022-11-04T18:33:17.433Z,7.59
2022-11-04T18:35:44.190Z,7.61
2022-11-04T18:38:11.179Z,7.60
2022-11-04T18:40:37.998Z,7.63
2022-11-04T18:43:08.877Z,7.61
2022-11-04T18:45:36.613Z,7.63
2022-11-04T18:48:03.537Z,7.60
2022-11-04T18:50:30.455Z,7.65
2022-11-04T18:52:57.256Z,7.66
2022-11-04T18:55:24.361Z,7.68
2022-11-04T18:57:55.353Z,7.66
2022-11-04T19:00:22.673Z,7.62
2022-11-04T19:02:49.602Z,7.68
2022-11-04T19:05:16.801Z,7.69
2022-11-04T19:07:44.099Z,7.68
2022-11-04T19:10:11.570Z,7.61
2022-11-04T19:12:56.698Z,7.67
2022-11-04T19:15:23.794Z,7.67
2022-11-04T19:17:50.537Z,7.62
2022-11-04T19:20:17.473Z,7.67
2022-11-04T19:22:44.218Z,7.64
2022-11-04T19:25:11.097Z,7.62
2022-11-04T19:27:37.838Z,7.65
2022-11-04T19:30:05.043Z,7.62
2022-11-04T19:32:31.796Z,7.58
2022-11-04T19:34:58.575Z,7.50
2022-11-04T19:37:25.457Z,7.52
2022-11-04T19:39:52.212Z,7.45
2022-11-04T19:42:37.324Z,7.44
2022-11-04T19:45:04.593Z,7.39
2022-11-04T19:47:31.354Z,7.35
2022-11-04T19:49:58.133Z,7.32
2022-11-04T19:52:24.879Z,7.32
2022-11-04T19:54:51.718Z,7.22
2022-11-04T19:57:18.609Z,7.27
2022-11-04T19:59:45.353Z,7.25
2022-11-04T20:02:15.500Z,7.20
2022-11-04T20:04:42.400Z,7.25
2022-11-04T20:07:09.160Z,7.24
2022-11-04T20:09:35.893Z,7.24
2022-11-04T20:12:21.033Z,7.25
2022-11-04T20:14:47.835Z,7.27
2022-11-04T20:17:14.613Z,7.29
2022-11-04T20:19:41.377Z,7.28
2022-11-04T20:22:08.202Z,7.28
2022-11-04T20:24:34.956Z,7.27
2022-11-04T20:27:01.806Z,7.26
2022-11-04T20:29:28.575Z,7.23
2022-11-04T20:31:55.414Z,7.22
2022-11-04T20:34:22.195Z,7.24
2022-11-04T20:36:48.913Z,7.26
2022-11-04T20:39:19.618Z,7.27
2022-11-04T20:41:46.855Z,7.24
2022-11-04T20:44:14.336Z,7.26
2022-11-04T20:46:41.513Z,7.25
2022-11-04T20:49:08.433Z,7.24
2022-11-04T20:51:36.752Z,7.26
2022-11-04T20:54:04.831Z,7.28
2022-11-04T20:56:33.237Z,7.28
2022-11-04T20:59:00.289Z,7.28
2022-11-04T21:01:38.324Z,7.31
2022-11-04T21:04:07.111Z,7.34
2022-11-04T21:06:35.294Z,7.38
2022-11-04T21:09:02.182Z,7.40
2022-11-04T21:11:32.075Z,7.43
2022-11-04T21:13:59.451Z,7.48
2022-11-04T21:16:28.104Z,7.50
2022-11-04T21:18:55.355Z,7.55
2022-11-04T21:21:23.135Z,7.58
2022-11-04T21:23:51.308Z,7.59
2022-11-04T21:26:23.033Z,7.61
2022-11-04T21:29:03.211Z,7.65
2022-11-04T21:31:31.200Z,7.68
2022-11-04T21:33:58.229Z,7.64
2022-11-04T21:36:25.113Z,7.73
2022-11-04T21:38:51.935Z,7.75
2022-11-04T21:41:23.163Z,7.76
2022-11-04T21:43:57.099Z,7.78
2022-11-04T21:46:24.114Z,7.81
2022-11-04T21:48:50.916Z,7.81
2022-11-04T21:51:22.594Z,7.81
2022-11-04T21:53:49.414Z,7.79
2022-11-04T21:56:21.388Z,7.85
2022-11-04T21:58:48.089Z,7.79
2022-11-04T22:01:18.099Z,7.85
2022-11-04T22:03:45.190Z,7.86
2022-11-04T22:06:12.871Z,7.87
2022-11-04T22:08:42.861Z,7.88
2022-11-04T22:11:14.394Z,7.90
2022-11-04T22:13:41.613Z,7.91
2022-11-04T22:16:15.795Z,7.88
2022-11-04T22:18:42.611Z,7.87
2022-11-04T22:21:14.294Z,7.91
2022-11-04T22:23:41.152Z,7.89
2022-11-04T22:26:10.397Z,7.89
2022-11-04T22:28:37.156Z,7.91
2022-11-04T22:31:23.545Z,7.93
2022-11-04T22:33:50.870Z,7.89
2022-11-04T22:36:17.710Z,7.87
2022-11-04T22:38:44.553Z,7.92
2022-11-04T22:41:16.374Z,7.87
2022-11-04T22:43:43.238Z,7.96
2022-11-04T22:46:15.870Z,7.93
2022-11-04T22:48:42.611Z,7.95
2022-11-04T22:51:09.932Z,7.93
2022-11-04T22:53:37.251Z,7.97
2022-11-04T22:56:04.853Z,7.98
2022-11-04T22:58:31.655Z,7.97
2022-11-04T23:01:02.162Z,8.00
2022-11-04T23:03:29.188Z,8.00
2022-11-04T23:05:57.491Z,8.00
2022-11-04T23:08:24.852Z,8.01
2022-11-04T23:11:13.514Z,7.99
2022-11-04T23:14:01.672Z,7.95
2022-11-04T23:16:46.831Z,7.96
2022-11-04T23:19:13.771Z,7.95
2022-11-04T23:21:58.810Z,7.93
2022-11-04T23:24:43.832Z,7.94
2022-11-04T23:27:10.593Z,7.92
2022-11-04T23:29:55.693Z,7.90
2022-11-04T23:32:27.078Z,7.91
2022-11-04T23:35:12.813Z,7.91
2022-11-04T23:37:39.610Z,7.88
2022-11-04T23:40:07.313Z,7.87
2022-11-04T23:42:34.092Z,7.86
2022-11-04T23:45:19.572Z,7.84
2022-11-04T23:48:05.874Z,7.83
2022-11-04T23:50:57.192Z,7.81
2022-11-04T23:53:42.710Z,7.81
2022-11-04T23:56:28.762Z,7.81
2022-11-04T23:59:14.016Z,7.74
